sensor_id;sensor_type;location;lat;lon;timestamp;temperature;humidity
792;DHT22;379;49.022;12.148;2023-12-07T00:01:23;0.70;99.90
792;DHT22;379;49.022;12.148;2023-12-07T00:03:49;0.70;99.90
792;DHT22;379;49.022;12.148;2023-12-07T00:06:16;0.70;99.90
792;DHT22;379;49.022;12.148;2023-12-07T00:08:44;0.70;99.90
792;DHT22;379;49.022;12.148;2023-12-07T00:11:11;0.70;99.90
792;DHT22;379;49.022;12.148;2023-12-07T00:13:38;0.80;99.90
792;DHT22;379;49.022;12.148;2023-12-07T00:16:05;0.80;99.90
792;DHT22;379;49.022;12.148;2023-12-07T00:18:32;0.80;99.90
792;DHT22;379;49.022;12.148;2023-12-07T00:20:59;0.80;99.90
792;DHT22;379;49.022;12.148;2023-12-07T00:23:25;0.80;99.90
792;DHT22;379;49.022;12.148;2023-12-07T00:25:53;0.80;99.90
792;DHT22;379;49.022;12.148;2023-12-07T00:28:20;0.70;99.90
792;DHT22;379;49.022;12.148;2023-12-07T00:30:47;0.70;99.90
792;DHT22;379;49.022;12.148;2023-12-07T00:33:14;0.70;99.90
792;DHT22;379;49.022;12.148;2023-12-07T00:35:42;0.70;99.90
792;DHT22;379;49.022;12.148;2023-12-07T00:38:09;0.80;99.90
792;DHT22;379;49.022;12.148;2023-12-07T00:40:36;0.80;99.90
792;DHT22;379;49.022;12.148;2023-12-07T00:43:06;0.90;99.90
792;DHT22;379;49.022;12.148;2023-12-07T00:45:33;0.90;99.90
792;DHT22;379;49.022;12.148;2023-12-07T00:48:00;0.90;99.90
792;DHT22;379;49.022;12.148;2023-12-07T00:50:27;0.90;99.90
792;DHT22;379;49.022;12.148;2023-12-07T00:52:54;0.90;99.90
792;DHT22;379;49.022;12.148;2023-12-07T00:55:20;0.80;99.90
792;DHT22;379;49.022;12.148;2023-12-07T00:57:47;0.80;99.90
792;DHT22;379;49.022;12.148;2023-12-07T01:00:15;0.70;99.90
792;DHT22;379;49.022;12.148;2023-12-07T01:02:42;0.70;99.90
792;DHT22;379;49.022;12.148;2023-12-07T01:05:09;0.60;99.90
792;DHT22;379;49.022;12.148;2023-12-07T01:07:36;0.70;99.90
792;DHT22;379;49.022;12.148;2023-12-07T01:10:03;0.60;99.90
792;DHT22;379;49.022;12.148;2023-12-07T01:12:30;0.60;99.90
792;DHT22;379;49.022;12.148;2023-12-07T01:14:56;0.60;99.90
792;DHT22;379;49.022;12.148;2023-12-07T01:17:24;0.70;99.90
792;DHT22;379;49.022;12.148;2023-12-07T01:19:51;0.70;99.90
792;DHT22;379;49.022;12.148;2023-12-07T01:22:18;0.70;99.90
792;DHT22;379;49.022;12.148;2023-12-07T01:24:46;0.70;99.90
792;DHT22;379;49.022;12.148;2023-12-07T01:27:12;0.70;99.90
792;DHT22;379;49.022;12.148;2023-12-07T01:29:39;0.60;99.90
792;DHT22;379;49.022;12.148;2023-12-07T01:32:06;0.60;99.90
792;DHT22;379;49.022;12.148;2023-12-07T01:34:34;0.60;99.90
792;DHT22;379;49.022;12.148;2023-12-07T01:37:01;0.60;99.90
792;DHT22;379;49.022;12.148;2023-12-07T01:39:27;0.50;99.90
792;DHT22;379;49.022;12.148;2023-12-07T01:41:54;0.40;99.90
792;DHT22;379;49.022;12.148;2023-12-07T01:44:21;0.40;99.90
792;DHT22;379;49.022;12.148;2023-12-07T01:46:48;0.40;99.90
792;DHT22;379;49.022;12.148;2023-12-07T01:49:15;0.40;99.90
792;DHT22;379;49.022;12.148;2023-12-07T01:51:43;0.40;99.90
792;DHT22;379;49.022;12.148;2023-12-07T01:54:10;0.40;99.90
792;DHT22;379;49.022;12.148;2023-12-07T01:56:37;0.40;99.90
792;DHT22;379;49.022;12.148;2023-12-07T01:59:04;0.40;99.90
792;DHT22;379;49.022;12.148;2023-12-07T02:01:30;0.50;99.90
792;DHT22;379;49.022;12.148;2023-12-07T02:03:57;0.40;99.90
792;DHT22;379;49.022;12.148;2023-12-07T02:06:24;0.40;99.90
792;DHT22;379;49.022;12.148;2023-12-07T02:08:53;0.40;99.90
792;DHT22;379;49.022;12.148;2023-12-07T02:11:20;0.40;99.90
792;DHT22;379;49.022;12.148;2023-12-07T02:13:46;0.40;99.90
792;DHT22;379;49.022;12.148;2023-12-07T02:16:17;0.40;99.90
792;DHT22;379;49.022;12.148;2023-12-07T02:18:50;0.40;99.90
792;DHT22;379;49.022;12.148;2023-12-07T02:21:22;0.40;99.90
792;DHT22;379;49.022;12.148;2023-12-07T02:23:54;0.40;99.90
792;DHT22;379;49.022;12.148;2023-12-07T02:26:53;0.40;99.90
792;DHT22;379;49.022;12.148;2023-12-07T02:29:19;0.40;99.90
792;DHT22;379;49.022;12.148;2023-12-07T02:31:46;0.40;99.90
792;DHT22;379;49.022;12.148;2023-12-07T02:34:13;0.40;99.90
792;DHT22;379;49.022;12.148;2023-12-07T02:36:40;0.40;99.90
792;DHT22;379;49.022;12.148;2023-12-07T02:39:09;0.50;99.90
792;DHT22;379;49.022;12.148;2023-12-07T02:41:38;0.50;99.90
792;DHT22;379;49.022;12.148;2023-12-07T02:44:07;0.50;99.90
792;DHT22;379;49.022;12.148;2023-12-07T02:46:34;0.50;99.90
792;DHT22;379;49.022;12.148;2023-12-07T02:49:01;0.60;99.90
792;DHT22;379;49.022;12.148;2023-12-07T02:51:28;0.60;99.90
792;DHT22;379;49.022;12.148;2023-12-07T02:53:54;0.70;99.90
792;DHT22;379;49.022;12.148;2023-12-07T02:56:21;0.70;99.90
792;DHT22;379;49.022;12.148;2023-12-07T02:58:48;0.70;99.90
792;DHT22;379;49.022;12.148;2023-12-07T03:01:16;0.80;99.90
792;DHT22;379;49.022;12.148;2023-12-07T03:03:43;0.70;99.90
792;DHT22;379;49.022;12.148;2023-12-07T03:06:10;0.70;99.90
792;DHT22;379;49.022;12.148;2023-12-07T03:08:36;0.80;99.90
792;DHT22;379;49.022;12.148;2023-12-07T03:11:05;0.80;99.90
792;DHT22;379;49.022;12.148;2023-12-07T03:13:31;0.70;99.90
792;DHT22;379;49.022;12.148;2023-12-07T03:15:57;0.80;99.90
792;DHT22;379;49.022;12.148;2023-12-07T03:18:26;0.80;99.90
792;DHT22;379;49.022;12.148;2023-12-07T03:20:52;0.80;99.90
792;DHT22;379;49.022;12.148;2023-12-07T03:23:19;0.90;99.90
792;DHT22;379;49.022;12.148;2023-12-07T03:25:46;0.90;99.90
792;DHT22;379;49.022;12.148;2023-12-07T03:28:13;0.90;99.90
792;DHT22;379;49.022;12.148;2023-12-07T03:30:39;0.90;99.90
792;DHT22;379;49.022;12.148;2023-12-07T03:33:06;0.90;99.90
792;DHT22;379;49.022;12.148;2023-12-07T03:35:34;0.90;99.90
792;DHT22;379;49.022;12.148;2023-12-07T03:38:02;0.80;99.90
792;DHT22;379;49.022;12.148;2023-12-07T03:40:29;0.90;99.90
792;DHT22;379;49.022;12.148;2023-12-07T03:42:55;0.90;99.90
792;DHT22;379;49.022;12.148;2023-12-07T03:45:22;1.00;99.90
792;DHT22;379;49.022;12.148;2023-12-07T03:47:49;1.00;99.90
792;DHT22;379;49.022;12.148;2023-12-07T03:50:16;1.10;99.90
792;DHT22;379;49.022;12.148;2023-12-07T03:52:44;1.10;99.90
792;DHT22;379;49.022;12.148;2023-12-07T03:55:10;1.10;99.90
792;DHT22;379;49.022;12.148;2023-12-07T03:57:37;1.10;99.90
792;DHT22;379;49.022;12.148;2023-12-07T04:00:05;1.00;99.90
792;DHT22;379;49.022;12.148;2023-12-07T04:02:36;1.00;99.90
792;DHT22;379;49.022;12.148;2023-12-07T04:05:03;0.90;99.90
792;DHT22;379;49.022;12.148;2023-12-07T04:07:30;0.90;99.90
792;DHT22;379;49.022;12.148;2023-12-07T04:09:58;0.80;99.90
792;DHT22;379;49.022;12.148;2023-12-07T04:12:25;0.80;99.90
792;DHT22;379;49.022;12.148;2023-12-07T04:14:51;0.70;99.90
792;DHT22;379;49.022;12.148;2023-12-07T04:17:18;0.70;99.90
792;DHT22;379;49.022;12.148;2023-12-07T04:19:45;0.70;99.90
792;DHT22;379;49.022;12.148;2023-12-07T04:22:12;0.70;99.90
792;DHT22;379;49.022;12.148;2023-12-07T04:24:38;0.80;99.90
792;DHT22;379;49.022;12.148;2023-12-07T04:27:06;0.80;99.90
792;DHT22;379;49.022;12.148;2023-12-07T04:29:33;0.80;99.90
792;DHT22;379;49.022;12.148;2023-12-07T04:32:01;0.80;99.90
792;DHT22;379;49.022;12.148;2023-12-07T04:34:28;0.80;99.90
792;DHT22;379;49.022;12.148;2023-12-07T04:36:54;0.80;99.90
792;DHT22;379;49.022;12.148;2023-12-07T04:39:21;0.70;99.90
792;DHT22;379;49.022;12.148;2023-12-07T04:41:48;0.70;99.90
792;DHT22;379;49.022;12.148;2023-12-07T04:44:16;0.70;99.90
792;DHT22;379;49.022;12.148;2023-12-07T04:46:44;0.70;99.90
792;DHT22;379;49.022;12.148;2023-12-07T04:49:11;0.70;99.90
792;DHT22;379;49.022;12.148;2023-12-07T04:51:38;0.70;99.90
792;DHT22;379;49.022;12.148;2023-12-07T04:54:07;0.60;99.90
792;DHT22;379;49.022;12.148;2023-12-07T04:56:34;0.70;99.90
792;DHT22;379;49.022;12.148;2023-12-07T04:59:00;0.70;99.90
792;DHT22;379;49.022;12.148;2023-12-07T05:01:28;0.80;99.90
792;DHT22;379;49.022;12.148;2023-12-07T05:03:55;0.80;99.90
792;DHT22;379;49.022;12.148;2023-12-07T05:06:22;0.80;99.90
792;DHT22;379;49.022;12.148;2023-12-07T05:08:49;0.80;99.90
792;DHT22;379;49.022;12.148;2023-12-07T05:11:16;0.80;99.90
792;DHT22;379;49.022;12.148;2023-12-07T05:13:43;0.80;99.90
792;DHT22;379;49.022;12.148;2023-12-07T05:16:10;0.80;99.90
792;DHT22;379;49.022;12.148;2023-12-07T05:18:39;0.80;99.90
792;DHT22;379;49.022;12.148;2023-12-07T05:21:09;0.80;99.90
792;DHT22;379;49.022;12.148;2023-12-07T05:23:36;0.80;99.90
792;DHT22;379;49.022;12.148;2023-12-07T05:26:04;0.80;99.90
792;DHT22;379;49.022;12.148;2023-12-07T05:28:31;0.80;99.90
792;DHT22;379;49.022;12.148;2023-12-07T05:30:58;0.80;99.90
792;DHT22;379;49.022;12.148;2023-12-07T05:33:25;0.80;99.90
792;DHT22;379;49.022;12.148;2023-12-07T05:35:53;0.80;99.90
792;DHT22;379;49.022;12.148;2023-12-07T05:38:20;0.80;99.90
792;DHT22;379;49.022;12.148;2023-12-07T05:40:46;0.80;99.90
792;DHT22;379;49.022;12.148;2023-12-07T05:43:13;0.70;99.90
792;DHT22;379;49.022;12.148;2023-12-07T05:45:40;0.80;99.90
792;DHT22;379;49.022;12.148;2023-12-07T05:48:07;0.70;99.90
792;DHT22;379;49.022;12.148;2023-12-07T05:50:34;0.80;99.90
792;DHT22;379;49.022;12.148;2023-12-07T05:53:06;0.80;99.90
792;DHT22;379;49.022;12.148;2023-12-07T05:55:33;0.80;99.90
792;DHT22;379;49.022;12.148;2023-12-07T05:57:59;0.80;99.90
792;DHT22;379;49.022;12.148;2023-12-07T06:00:26;0.80;99.90
792;DHT22;379;49.022;12.148;2023-12-07T06:02:55;0.70;99.90
792;DHT22;379;49.022;12.148;2023-12-07T06:05:22;0.80;99.90
792;DHT22;379;49.022;12.148;2023-12-07T06:07:49;0.70;99.90
792;DHT22;379;49.022;12.148;2023-12-07T06:10:17;0.80;99.90
792;DHT22;379;49.022;12.148;2023-12-07T06:12:44;0.70;99.90
792;DHT22;379;49.022;12.148;2023-12-07T06:15:11;0.70;99.90
792;DHT22;379;49.022;12.148;2023-12-07T06:17:38;0.70;99.90
792;DHT22;379;49.022;12.148;2023-12-07T06:20:06;0.60;99.90
792;DHT22;379;49.022;12.148;2023-12-07T06:22:33;0.60;99.90
792;DHT22;379;49.022;12.148;2023-12-07T06:25:00;0.50;99.90
792;DHT22;379;49.022;12.148;2023-12-07T06:27:28;0.40;99.90
792;DHT22;379;49.022;12.148;2023-12-07T06:29:55;0.30;99.90
792;DHT22;379;49.022;12.148;2023-12-07T06:32:22;0.20;99.90
792;DHT22;379;49.022;12.148;2023-12-07T06:34:49;0.10;99.90
792;DHT22;379;49.022;12.148;2023-12-07T06:37:16;0.10;99.90
792;DHT22;379;49.022;12.148;2023-12-07T06:39:43;0.20;99.90
792;DHT22;379;49.022;12.148;2023-12-07T06:42:10;0.10;99.90
792;DHT22;379;49.022;12.148;2023-12-07T06:44:38;0.10;99.90
792;DHT22;379;49.022;12.148;2023-12-07T06:47:04;0.10;99.90
792;DHT22;379;49.022;12.148;2023-12-07T06:49:31;0.00;99.90
792;DHT22;379;49.022;12.148;2023-12-07T06:51:58;-0.10;99.90
792;DHT22;379;49.022;12.148;2023-12-07T06:54:25;-0.10;99.90
792;DHT22;379;49.022;12.148;2023-12-07T06:56:51;-0.20;99.90
792;DHT22;379;49.022;12.148;2023-12-07T06:59:19;-0.20;99.90
792;DHT22;379;49.022;12.148;2023-12-07T07:01:47;-0.20;99.90
792;DHT22;379;49.022;12.148;2023-12-07T07:04:14;-0.20;99.90
792;DHT22;379;49.022;12.148;2023-12-07T07:06:41;-0.20;99.90
792;DHT22;379;49.022;12.148;2023-12-07T07:09:08;-0.20;99.90
792;DHT22;379;49.022;12.148;2023-12-07T07:11:35;-0.10;99.90
792;DHT22;379;49.022;12.148;2023-12-07T07:14:02;-0.10;99.90
792;DHT22;379;49.022;12.148;2023-12-07T07:16:29;-0.10;99.90
792;DHT22;379;49.022;12.148;2023-12-07T07:18:58;-0.10;99.90
792;DHT22;379;49.022;12.148;2023-12-07T07:21:24;-0.20;99.90
792;DHT22;379;49.022;12.148;2023-12-07T07:23:51;-0.20;99.90
792;DHT22;379;49.022;12.148;2023-12-07T07:26:18;-0.10;99.90
792;DHT22;379;49.022;12.148;2023-12-07T07:28:45;-0.10;99.90
792;DHT22;379;49.022;12.148;2023-12-07T07:31:11;-0.10;99.90
792;DHT22;379;49.022;12.148;2023-12-07T07:33:38;-0.10;99.90
792;DHT22;379;49.022;12.148;2023-12-07T07:36:07;0.00;99.90
792;DHT22;379;49.022;12.148;2023-12-07T07:38:34;0.00;99.90
792;DHT22;379;49.022;12.148;2023-12-07T07:41:01;0.20;99.90
792;DHT22;379;49.022;12.148;2023-12-07T07:43:27;0.30;99.90
792;DHT22;379;49.022;12.148;2023-12-07T07:45:54;0.30;99.90
792;DHT22;379;49.022;12.148;2023-12-07T07:48:21;0.40;99.90
792;DHT22;379;49.022;12.148;2023-12-07T07:50:48;0.50;99.90
792;DHT22;379;49.022;12.148;2023-12-07T07:53:16;0.60;99.90
792;DHT22;379;49.022;12.148;2023-12-07T07:55:43;0.70;99.90
792;DHT22;379;49.022;12.148;2023-12-07T07:58:09;0.70;99.90
792;DHT22;379;49.022;12.148;2023-12-07T08:00:36;0.80;99.90
792;DHT22;379;49.022;12.148;2023-12-07T08:03:03;0.80;99.90
792;DHT22;379;49.022;12.148;2023-12-07T08:05:29;0.90;99.90
792;DHT22;379;49.022;12.148;2023-12-07T08:07:56;1.00;99.90
792;DHT22;379;49.022;12.148;2023-12-07T08:10:24;1.10;99.90
792;DHT22;379;49.022;12.148;2023-12-07T08:12:51;1.10;99.90
792;DHT22;379;49.022;12.148;2023-12-07T08:15:17;1.20;99.90
792;DHT22;379;49.022;12.148;2023-12-07T08:17:46;1.20;99.90
792;DHT22;379;49.022;12.148;2023-12-07T08:20:13;1.30;99.90
792;DHT22;379;49.022;12.148;2023-12-07T08:22:40;1.40;99.90
792;DHT22;379;49.022;12.148;2023-12-07T08:25:07;1.40;99.90
792;DHT22;379;49.022;12.148;2023-12-07T08:27:36;1.50;99.90
792;DHT22;379;49.022;12.148;2023-12-07T08:30:04;1.40;99.90
792;DHT22;379;49.022;12.148;2023-12-07T08:32:31;1.40;99.90
792;DHT22;379;49.022;12.148;2023-12-07T08:34:58;1.30;99.90
792;DHT22;379;49.022;12.148;2023-12-07T08:37:24;1.30;99.90
792;DHT22;379;49.022;12.148;2023-12-07T08:39:51;1.20;99.90
792;DHT22;379;49.022;12.148;2023-12-07T08:42:18;1.10;99.90
792;DHT22;379;49.022;12.148;2023-12-07T08:44:46;1.00;99.90
792;DHT22;379;49.022;12.148;2023-12-07T08:47:12;0.90;99.90
792;DHT22;379;49.022;12.148;2023-12-07T08:49:39;0.80;99.90
792;DHT22;379;49.022;12.148;2023-12-07T08:52:06;0.70;99.90
792;DHT22;379;49.022;12.148;2023-12-07T08:54:33;0.70;99.90
792;DHT22;379;49.022;12.148;2023-12-07T08:57:01;0.60;99.90
792;DHT22;379;49.022;12.148;2023-12-07T08:59:28;0.60;99.90
792;DHT22;379;49.022;12.148;2023-12-07T09:01:57;0.60;99.90
792;DHT22;379;49.022;12.148;2023-12-07T09:04:23;0.60;99.90
792;DHT22;379;49.022;12.148;2023-12-07T09:06:50;0.60;99.90
792;DHT22;379;49.022;12.148;2023-12-07T09:09:17;0.60;99.90
792;DHT22;379;49.022;12.148;2023-12-07T09:11:43;0.60;99.90
792;DHT22;379;49.022;12.148;2023-12-07T09:14:10;0.60;99.90
792;DHT22;379;49.022;12.148;2023-12-07T09:16:42;0.60;99.90
792;DHT22;379;49.022;12.148;2023-12-07T09:19:11;0.70;99.90
792;DHT22;379;49.022;12.148;2023-12-07T09:21:39;0.80;99.90
792;DHT22;379;49.022;12.148;2023-12-07T09:24:06;0.90;99.90
792;DHT22;379;49.022;12.148;2023-12-07T09:26:33;0.90;99.90
792;DHT22;379;49.022;12.148;2023-12-07T09:29:00;0.90;99.90
792;DHT22;379;49.022;12.148;2023-12-07T09:31:26;1.00;99.90
792;DHT22;379;49.022;12.148;2023-12-07T09:33:53;1.00;99.90
792;DHT22;379;49.022;12.148;2023-12-07T09:36:23;1.00;99.90
792;DHT22;379;49.022;12.148;2023-12-07T09:38:49;1.10;99.90
792;DHT22;379;49.022;12.148;2023-12-07T09:41:16;1.10;99.90
792;DHT22;379;49.022;12.148;2023-12-07T09:43:43;1.10;99.90
792;DHT22;379;49.022;12.148;2023-12-07T09:46:10;1.10;99.90
792;DHT22;379;49.022;12.148;2023-12-07T09:48:37;1.00;99.90
792;DHT22;379;49.022;12.148;2023-12-07T09:51:09;1.00;99.90
792;DHT22;379;49.022;12.148;2023-12-07T09:53:39;1.00;99.90
792;DHT22;379;49.022;12.148;2023-12-07T09:56:09;1.00;99.90
792;DHT22;379;49.022;12.148;2023-12-07T09:58:36;1.10;99.90
792;DHT22;379;49.022;12.148;2023-12-07T10:01:03;1.10;99.90
792;DHT22;379;49.022;12.148;2023-12-07T10:03:30;1.20;99.90
792;DHT22;379;49.022;12.148;2023-12-07T10:05:58;1.20;99.90
792;DHT22;379;49.022;12.148;2023-12-07T10:08:26;1.20;99.90
792;DHT22;379;49.022;12.148;2023-12-07T10:11:03;1.20;99.90
792;DHT22;379;49.022;12.148;2023-12-07T10:13:31;1.30;99.90
792;DHT22;379;49.022;12.148;2023-12-07T10:16:13;1.30;99.90
792;DHT22;379;49.022;12.148;2023-12-07T10:18:40;1.30;99.90
792;DHT22;379;49.022;12.148;2023-12-07T10:21:07;1.40;99.90
792;DHT22;379;49.022;12.148;2023-12-07T10:23:36;1.50;99.90
792;DHT22;379;49.022;12.148;2023-12-07T10:26:06;1.50;99.90
792;DHT22;379;49.022;12.148;2023-12-07T10:28:34;1.60;99.90
792;DHT22;379;49.022;12.148;2023-12-07T10:31:01;1.70;99.90
792;DHT22;379;49.022;12.148;2023-12-07T10:33:27;1.80;99.90
792;DHT22;379;49.022;12.148;2023-12-07T10:35:55;1.80;99.90
792;DHT22;379;49.022;12.148;2023-12-07T10:38:21;1.90;99.90
792;DHT22;379;49.022;12.148;2023-12-07T10:40:49;1.80;99.90
792;DHT22;379;49.022;12.148;2023-12-07T10:43:19;1.80;99.90
792;DHT22;379;49.022;12.148;2023-12-07T10:45:47;1.80;99.90
792;DHT22;379;49.022;12.148;2023-12-07T10:48:14;1.70;99.90
792;DHT22;379;49.022;12.148;2023-12-07T10:50:42;1.80;99.90
792;DHT22;379;49.022;12.148;2023-12-07T10:53:12;1.70;99.90
792;DHT22;379;49.022;12.148;2023-12-07T10:55:46;1.70;99.90
792;DHT22;379;49.022;12.148;2023-12-07T10:58:15;1.70;99.90
792;DHT22;379;49.022;12.148;2023-12-07T11:00:44;1.80;99.90
792;DHT22;379;49.022;12.148;2023-12-07T11:03:14;1.90;99.90
792;DHT22;379;49.022;12.148;2023-12-07T11:05:43;2.00;99.90
792;DHT22;379;49.022;12.148;2023-12-07T11:08:16;2.10;99.90
792;DHT22;379;49.022;12.148;2023-12-07T11:10:53;2.30;99.90
792;DHT22;379;49.022;12.148;2023-12-07T11:13:25;2.50;99.90
792;DHT22;379;49.022;12.148;2023-12-07T11:15:55;2.60;99.90
792;DHT22;379;49.022;12.148;2023-12-07T11:18:21;2.80;99.90
792;DHT22;379;49.022;12.148;2023-12-07T11:20:50;2.80;99.90
792;DHT22;379;49.022;12.148;2023-12-07T11:23:20;2.90;99.90
792;DHT22;379;49.022;12.148;2023-12-07T11:25:48;3.00;99.90
792;DHT22;379;49.022;12.148;2023-12-07T11:28:16;3.20;99.90
792;DHT22;379;49.022;12.148;2023-12-07T11:30:44;3.30;99.90
792;DHT22;379;49.022;12.148;2023-12-07T11:33:14;3.40;99.90
792;DHT22;379;49.022;12.148;2023-12-07T11:36:03;3.50;99.90
792;DHT22;379;49.022;12.148;2023-12-07T11:38:30;3.50;99.90
792;DHT22;379;49.022;12.148;2023-12-07T11:40:57;3.50;99.90
792;DHT22;379;49.022;12.148;2023-12-07T11:43:37;3.50;99.90
792;DHT22;379;49.022;12.148;2023-12-07T11:46:05;3.50;99.90
792;DHT22;379;49.022;12.148;2023-12-07T11:48:34;3.20;99.90
792;DHT22;379;49.022;12.148;2023-12-07T11:51:02;3.00;99.90
792;DHT22;379;49.022;12.148;2023-12-07T11:53:31;2.80;99.90
792;DHT22;379;49.022;12.148;2023-12-07T11:55:59;2.70;99.90
792;DHT22;379;49.022;12.148;2023-12-07T11:58:26;2.60;99.90
792;DHT22;379;49.022;12.148;2023-12-07T12:00:53;2.60;99.90
792;DHT22;379;49.022;12.148;2023-12-07T12:03:22;2.50;99.90
792;DHT22;379;49.022;12.148;2023-12-07T12:05:50;2.30;99.90
792;DHT22;379;49.022;12.148;2023-12-07T12:08:17;2.20;99.90
792;DHT22;379;49.022;12.148;2023-12-07T12:10:45;2.00;99.90
792;DHT22;379;49.022;12.148;2023-12-07T12:13:12;2.00;99.90
792;DHT22;379;49.022;12.148;2023-12-07T12:15:39;2.00;99.90
792;DHT22;379;49.022;12.148;2023-12-07T12:18:06;2.00;99.90
792;DHT22;379;49.022;12.148;2023-12-07T12:20:33;1.90;99.90
792;DHT22;379;49.022;12.148;2023-12-07T12:23:01;1.90;99.90
792;DHT22;379;49.022;12.148;2023-12-07T12:25:29;2.10;99.90
792;DHT22;379;49.022;12.148;2023-12-07T12:27:58;2.30;99.90
792;DHT22;379;49.022;12.148;2023-12-07T12:30:26;2.50;99.90
792;DHT22;379;49.022;12.148;2023-12-07T12:32:54;2.70;99.90
792;DHT22;379;49.022;12.148;2023-12-07T12:35:20;2.70;99.90
792;DHT22;379;49.022;12.148;2023-12-07T12:37:48;2.80;99.90
792;DHT22;379;49.022;12.148;2023-12-07T12:40:18;2.80;99.90
792;DHT22;379;49.022;12.148;2023-12-07T12:42:46;2.80;99.90
792;DHT22;379;49.022;12.148;2023-12-07T12:45:13;2.70;99.90
792;DHT22;379;49.022;12.148;2023-12-07T12:47:41;2.70;99.90
792;DHT22;379;49.022;12.148;2023-12-07T12:50:09;2.70;99.90
792;DHT22;379;49.022;12.148;2023-12-07T12:52:36;2.80;99.90
792;DHT22;379;49.022;12.148;2023-12-07T12:55:07;2.90;99.90
792;DHT22;379;49.022;12.148;2023-12-07T12:57:37;2.90;99.90
792;DHT22;379;49.022;12.148;2023-12-07T13:00:05;2.80;99.90
792;DHT22;379;49.022;12.148;2023-12-07T13:02:33;2.80;99.90
792;DHT22;379;49.022;12.148;2023-12-07T13:05:00;2.80;99.90
792;DHT22;379;49.022;12.148;2023-12-07T13:07:27;2.70;99.90
792;DHT22;379;49.022;12.148;2023-12-07T13:09:54;2.60;99.90
792;DHT22;379;49.022;12.148;2023-12-07T13:12:21;2.40;99.90
792;DHT22;379;49.022;12.148;2023-12-07T13:14:50;2.30;99.90
792;DHT22;379;49.022;12.148;2023-12-07T13:17:16;2.10;99.90
792;DHT22;379;49.022;12.148;2023-12-07T13:19:43;2.00;99.90
792;DHT22;379;49.022;12.148;2023-12-07T13:22:10;2.00;99.90
792;DHT22;379;49.022;12.148;2023-12-07T13:24:37;1.90;99.90
792;DHT22;379;49.022;12.148;2023-12-07T13:27:04;1.80;99.90
792;DHT22;379;49.022;12.148;2023-12-07T13:29:31;1.70;99.90
792;DHT22;379;49.022;12.148;2023-12-07T13:31:59;1.60;99.90
792;DHT22;379;49.022;12.148;2023-12-07T13:34:26;1.50;99.90
792;DHT22;379;49.022;12.148;2023-12-07T13:36:53;1.50;99.90
792;DHT22;379;49.022;12.148;2023-12-07T13:39:19;1.50;99.90
792;DHT22;379;49.022;12.148;2023-12-07T13:41:47;1.50;99.90
792;DHT22;379;49.022;12.148;2023-12-07T13:44:15;1.40;99.90
792;DHT22;379;49.022;12.148;2023-12-07T13:46:44;1.40;99.90
792;DHT22;379;49.022;12.148;2023-12-07T13:49:12;1.30;99.90
792;DHT22;379;49.022;12.148;2023-12-07T13:51:40;1.30;99.90
792;DHT22;379;49.022;12.148;2023-12-07T13:54:07;1.30;99.90
792;DHT22;379;49.022;12.148;2023-12-07T13:56:34;1.20;99.90
792;DHT22;379;49.022;12.148;2023-12-07T13:59:01;1.20;99.90
792;DHT22;379;49.022;12.148;2023-12-07T14:01:28;1.10;99.90
792;DHT22;379;49.022;12.148;2023-12-07T14:03:57;1.10;99.90
792;DHT22;379;49.022;12.148;2023-12-07T14:06:25;1.10;99.90
792;DHT22;379;49.022;12.148;2023-12-07T14:08:52;1.00;99.90
792;DHT22;379;49.022;12.148;2023-12-07T14:11:19;1.00;99.90
792;DHT22;379;49.022;12.148;2023-12-07T14:13:47;0.90;99.90
792;DHT22;379;49.022;12.148;2023-12-07T14:16:14;0.90;99.90
792;DHT22;379;49.022;12.148;2023-12-07T14:18:40;0.80;99.90
792;DHT22;379;49.022;12.148;2023-12-07T14:21:08;0.70;99.90
792;DHT22;379;49.022;12.148;2023-12-07T14:23:36;0.70;99.90
792;DHT22;379;49.022;12.148;2023-12-07T14:26:03;0.60;99.90
792;DHT22;379;49.022;12.148;2023-12-07T14:28:29;0.60;99.90
792;DHT22;379;49.022;12.148;2023-12-07T14:30:59;0.50;99.90
792;DHT22;379;49.022;12.148;2023-12-07T14:33:26;0.40;99.90
792;DHT22;379;49.022;12.148;2023-12-07T14:35:52;0.30;99.90
792;DHT22;379;49.022;12.148;2023-12-07T14:38:19;0.30;99.90
792;DHT22;379;49.022;12.148;2023-12-07T14:40:47;0.20;99.90
792;DHT22;379;49.022;12.148;2023-12-07T14:43:16;0.10;99.90
792;DHT22;379;49.022;12.148;2023-12-07T14:45:43;0.00;99.90
792;DHT22;379;49.022;12.148;2023-12-07T14:48:10;0.00;99.90
792;DHT22;379;49.022;12.148;2023-12-07T14:50:37;0.00;99.90
792;DHT22;379;49.022;12.148;2023-12-07T14:53:04;-0.10;99.90
792;DHT22;379;49.022;12.148;2023-12-07T14:55:31;-0.10;99.90
792;DHT22;379;49.022;12.148;2023-12-07T14:57:59;-0.10;99.90
792;DHT22;379;49.022;12.148;2023-12-07T15:00:26;-0.20;99.90
792;DHT22;379;49.022;12.148;2023-12-07T15:02:54;-0.20;99.90
792;DHT22;379;49.022;12.148;2023-12-07T15:05:21;-0.20;99.90
792;DHT22;379;49.022;12.148;2023-12-07T15:07:48;-0.20;99.90
792;DHT22;379;49.022;12.148;2023-12-07T15:10:16;-0.20;99.90
792;DHT22;379;49.022;12.148;2023-12-07T15:12:44;-0.20;99.90
792;DHT22;379;49.022;12.148;2023-12-07T15:15:12;-0.30;99.90
792;DHT22;379;49.022;12.148;2023-12-07T15:17:39;-0.30;99.90
792;DHT22;379;49.022;12.148;2023-12-07T15:20:07;-0.40;99.90
792;DHT22;379;49.022;12.148;2023-12-07T15:22:35;-0.40;99.90
792;DHT22;379;49.022;12.148;2023-12-07T15:25:02;-0.50;99.90
792;DHT22;379;49.022;12.148;2023-12-07T15:27:30;-0.60;99.90
792;DHT22;379;49.022;12.148;2023-12-07T15:29:57;-0.70;99.90
792;DHT22;379;49.022;12.148;2023-12-07T15:32:25;-0.80;99.90
792;DHT22;379;49.022;12.148;2023-12-07T15:34:52;-0.90;99.90
792;DHT22;379;49.022;12.148;2023-12-07T15:37:19;-1.00;99.90
792;DHT22;379;49.022;12.148;2023-12-07T15:39:45;-1.00;99.90
792;DHT22;379;49.022;12.148;2023-12-07T15:42:12;-1.10;99.90
792;DHT22;379;49.022;12.148;2023-12-07T15:44:39;-1.10;99.90
792;DHT22;379;49.022;12.148;2023-12-07T15:47:05;-1.20;99.90
792;DHT22;379;49.022;12.148;2023-12-07T15:49:34;-1.30;99.90
792;DHT22;379;49.022;12.148;2023-12-07T15:52:00;-1.30;99.90
792;DHT22;379;49.022;12.148;2023-12-07T15:54:28;-1.40;99.90
792;DHT22;379;49.022;12.148;2023-12-07T15:56:54;-1.40;99.90
792;DHT22;379;49.022;12.148;2023-12-07T15:59:21;-1.40;99.90
792;DHT22;379;49.022;12.148;2023-12-07T16:01:50;-1.50;99.90
792;DHT22;379;49.022;12.148;2023-12-07T16:04:17;-1.50;99.90
792;DHT22;379;49.022;12.148;2023-12-07T16:06:45;-1.50;99.90
792;DHT22;379;49.022;12.148;2023-12-07T16:09:12;-1.50;99.90
792;DHT22;379;49.022;12.148;2023-12-07T16:11:40;-1.60;99.90
792;DHT22;379;49.022;12.148;2023-12-07T16:14:07;-1.70;99.90
792;DHT22;379;49.022;12.148;2023-12-07T16:16:33;-1.80;99.90
792;DHT22;379;49.022;12.148;2023-12-07T16:19:00;-1.90;99.90
792;DHT22;379;49.022;12.148;2023-12-07T16:21:27;-1.90;99.90
792;DHT22;379;49.022;12.148;2023-12-07T16:23:56;-1.90;99.90
792;DHT22;379;49.022;12.148;2023-12-07T16:26:23;-1.90;99.90
792;DHT22;379;49.022;12.148;2023-12-07T16:28:49;-1.90;99.90
792;DHT22;379;49.022;12.148;2023-12-07T16:31:16;-1.80;99.90
792;DHT22;379;49.022;12.148;2023-12-07T16:33:43;-1.80;99.90